createdAt,value
2019-03-29T00:03:34.332Z,10.60
2019-03-29T00:07:39.960Z,10.70
2019-03-29T00:11:38.931Z,10.80
2019-03-29T00:15:40.072Z,10.80
2019-03-29T00:19:40.939Z,10.40
2019-03-29T00:23:41.803Z,10.70
2019-03-29T00:27:42.709Z,10.90
2019-03-29T00:31:43.598Z,11.00
2019-03-29T00:35:44.438Z,10.80
2019-03-29T00:39:45.311Z,10.20
2019-03-29T00:43:46.303Z,10.40
2019-03-29T00:47:47.173Z,10.10
2019-03-29T00:51:48.147Z,10.60
2019-03-29T00:55:49.028Z,10.80
2019-03-29T00:59:49.885Z,10.80
2019-03-29T01:03:52.892Z,10.60
2019-03-29T01:08:06.784Z,10.70
2019-03-29T01:11:56.838Z,10.40
2019-03-29T01:15:57.866Z,10.30
2019-03-29T01:19:58.737Z,10.20
2019-03-29T01:23:59.646Z,10.10
2019-03-29T01:28:00.543Z,10.10
2019-03-29T01:32:01.521Z,9.90
2019-03-29T01:36:02.523Z,9.80
2019-03-29T01:40:04.401Z,9.70
2019-03-29T01:44:05.351Z,9.60
2019-03-29T01:48:06.403Z,9.50
2019-03-29T01:52:07.281Z,9.10
2019-03-29T01:56:08.190Z,9.40
2019-03-29T02:00:12.888Z,9.20
2019-03-29T02:04:13.799Z,9.40
2019-03-29T02:08:14.682Z,10.00
2019-03-29T02:12:15.673Z,9.90
2019-03-29T02:16:16.675Z,10.10
2019-03-29T02:20:17.882Z,10.30
2019-03-29T02:24:18.929Z,10.50
2019-03-29T02:28:19.805Z,10.60
2019-03-29T02:32:20.682Z,10.80
2019-03-29T02:36:21.687Z,11.00
2019-03-29T02:40:23.207Z,11.10
2019-03-29T02:44:25.093Z,11.00
2019-03-29T02:48:26.292Z,11.20
2019-03-29T02:52:27.284Z,10.60
2019-03-29T02:56:28.251Z,11.30
2019-03-29T03:00:29.653Z,11.20
2019-03-29T03:04:30.676Z,11.00
2019-03-29T03:08:33.108Z,11.20
2019-03-29T03:12:34.494Z,11.30
2019-03-29T03:16:35.418Z,11.40
2019-03-29T03:20:36.300Z,11.40
2019-03-29T03:24:37.287Z,11.40
2019-03-29T03:28:39.570Z,11.40
2019-03-29T03:32:40.777Z,11.40
2019-03-29T03:36:41.818Z,11.20
2019-03-29T03:40:42.792Z,11.00
2019-03-29T03:44:43.627Z,10.90
2019-03-29T03:48:44.521Z,10.90
2019-03-29T03:52:45.404Z,11.00
2019-03-29T03:56:49.387Z,11.00
2019-03-29T04:00:55.826Z,11.30
2019-03-29T04:04:56.758Z,11.10
2019-03-29T04:08:57.642Z,11.20
2019-03-29T04:12:58.663Z,11.20
2019-03-29T04:16:59.540Z,11.10
2019-03-29T04:21:00.460Z,11.20
2019-03-29T04:25:01.419Z,11.00
2019-03-29T04:29:04.877Z,11.10
2019-03-29T04:33:05.373Z,10.80
2019-03-29T04:37:06.300Z,10.60
2019-03-29T04:41:07.181Z,10.50
2019-03-29T04:45:08.457Z,10.50
2019-03-29T04:49:09.454Z,10.10
2019-03-29T04:53:10.379Z,10.10
2019-03-29T04:57:11.251Z,9.60
2019-03-29T05:01:17.153Z,9.70
2019-03-29T05:05:16.461Z,9.90
2019-03-29T05:09:17.590Z,9.90
2019-03-29T05:13:18.512Z,10.00
2019-03-29T05:17:19.952Z,10.10
2019-03-29T05:21:22.994Z,9.60
2019-03-29T05:25:24.354Z,9.30
2019-03-29T05:29:25.365Z,9.70
2019-03-29T05:33:26.269Z,9.80
2019-03-29T05:37:27.164Z,9.90
2019-03-29T05:41:28.060Z,9.70
2019-03-29T05:45:28.986Z,9.80
2019-03-29T05:49:29.963Z,9.90
2019-03-29T05:53:30.850Z,10.10
2019-03-29T05:57:31.740Z,10.10
2019-03-29T06:01:32.761Z,10.20
2019-03-29T06:05:33.761Z,10.30
2019-03-29T06:09:35.063Z,10.40
2019-03-29T06:13:36.229Z,10.30
2019-03-29T06:17:48.081Z,10.40
2019-03-29T06:21:40.001Z,10.30
2019-03-29T06:25:41.185Z,11.20
2019-03-29T06:29:43.094Z,11.60
2019-03-29T06:33:44.680Z,11.90
2019-03-29T06:37:46.440Z,12.10
2019-03-29T06:41:47.328Z,12.50
2019-03-29T06:45:48.497Z,12.90
2019-03-29T06:49:49.611Z,13.20
2019-03-29T06:53:52.646Z,13.50
2019-03-29T06:57:53.260Z,14.00
2019-03-29T07:01:54.168Z,14.20
2019-03-29T07:05:55.159Z,14.60
2019-03-29T07:09:56.215Z,14.80
2019-03-29T07:13:58.129Z,15.30
2019-03-29T07:17:59.249Z,16.10
2019-03-29T07:22:00.164Z,16.70
2019-03-29T07:26:01.432Z,16.80
2019-03-29T07:30:04.484Z,17.50
2019-03-29T07:34:05.319Z,17.50
2019-03-29T07:38:06.198Z,17.30
2019-03-29T07:42:07.108Z,18.10
2019-03-29T07:46:08.031Z,18.80
2019-03-29T07:50:09.788Z,18.30
2019-03-29T07:54:10.791Z,18.20
2019-03-29T07:58:11.688Z,18.40
2019-03-29T08:02:12.757Z,16.50
2019-03-29T08:06:13.664Z,16.40
2019-03-29T08:10:25.915Z,16.00
2019-03-29T08:14:17.408Z,15.30
2019-03-29T08:18:18.389Z,16.40
2019-03-29T08:22:19.508Z,16.30
2019-03-29T08:26:20.937Z,15.40
2019-03-29T08:30:21.883Z,17.00
2019-03-29T08:34:22.827Z,16.30
2019-03-29T08:38:23.709Z,16.30
2019-03-29T08:42:24.708Z,15.90
2019-03-29T08:46:25.965Z,15.40
2019-03-29T08:50:26.935Z,16.80
2019-03-29T08:54:27.796Z,15.40
2019-03-29T08:58:28.684Z,16.60
2019-03-29T09:02:30.208Z,16.00
2019-03-29T09:06:31.382Z,15.20
2019-03-29T09:10:32.258Z,15.80
2019-03-29T09:14:33.138Z,17.70
2019-03-29T09:18:34.055Z,17.80
2019-03-29T09:22:35.053Z,17.80
2019-03-29T09:26:35.998Z,16.50
2019-03-29T09:30:37.029Z,17.00
2019-03-29T09:34:37.910Z,15.80
2019-03-29T09:38:38.817Z,16.20
2019-03-29T09:42:39.952Z,16.80
2019-03-29T09:46:40.929Z,15.50
2019-03-29T09:50:41.924Z,16.10
2019-03-29T09:54:42.931Z,17.50
2019-03-29T09:58:45.184Z,17.60
2019-03-29T10:02:46.490Z,17.60
2019-03-29T10:06:47.394Z,17.40
2019-03-29T10:10:48.273Z,17.60
2019-03-29T10:14:49.377Z,16.30
2019-03-29T10:18:50.291Z,16.70
2019-03-29T10:22:51.225Z,17.10
2019-03-29T10:26:52.139Z,17.10
2019-03-29T10:30:53.034Z,17.40
2019-03-29T10:34:54.030Z,18.60
2019-03-29T10:38:55.034Z,18.80
2019-03-29T10:42:58.024Z,18.60
2019-03-29T10:46:58.819Z,17.50
2019-03-29T10:50:59.717Z,17.60
2019-03-29T10:55:00.584Z,19.60
2019-03-29T10:59:01.703Z,17.50
2019-03-29T11:03:03.283Z,17.90
2019-03-29T11:07:04.535Z,18.20
2019-03-29T11:11:05.599Z,17.50
2019-03-29T11:15:07.003Z,16.80
2019-03-29T11:19:08.207Z,18.30
2019-03-29T11:23:09.212Z,18.70
2019-03-29T11:27:10.079Z,18.50
2019-03-29T11:31:11.036Z,18.30
2019-03-29T11:35:12.060Z,18.50
2019-03-29T11:39:13.655Z,17.30
2019-03-29T11:43:26.001Z,17.90
2019-03-29T11:47:17.556Z,18.80
2019-03-29T11:51:19.885Z,18.50
2019-03-29T11:55:21.557Z,18.20
2019-03-29T11:59:22.572Z,18.30
2019-03-29T12:03:23.438Z,16.50
2019-03-29T12:07:24.421Z,17.10
2019-03-29T12:11:25.599Z,18.00
2019-03-29T12:15:26.648Z,18.30
2019-03-29T12:19:27.697Z,20.10
2019-03-29T12:23:28.582Z,18.60
2019-03-29T12:27:29.479Z,19.70
2019-03-29T12:31:30.492Z,17.30
2019-03-29T12:35:31.492Z,18.60
2019-03-29T12:39:32.359Z,18.50
2019-03-29T12:43:33.250Z,16.90
2019-03-29T12:47:34.348Z,16.50
2019-03-29T12:51:35.418Z,18.40
2019-03-29T12:55:36.792Z,18.80
2019-03-29T12:59:37.947Z,18.80
2019-03-29T13:03:39.234Z,19.20
2019-03-29T13:07:41.673Z,21.30
2019-03-29T13:11:42.772Z,23.00
2019-03-29T13:15:43.836Z,23.00
2019-03-29T13:19:44.807Z,22.00
2019-03-29T13:23:45.803Z,21.40
2019-03-29T13:27:46.790Z,21.20
2019-03-29T13:31:47.657Z,22.10
2019-03-29T13:35:48.680Z,23.30
2019-03-29T13:39:49.539Z,23.70
2019-03-29T13:43:50.425Z,24.40
2019-03-29T13:47:51.350Z,25.20
2019-03-29T13:51:52.281Z,25.10
2019-03-29T13:55:53.178Z,23.80
2019-03-29T13:59:54.066Z,24.30
2019-03-29T14:03:54.968Z,22.50
2019-03-29T14:07:56.869Z,20.40
2019-03-29T14:11:57.967Z,22.30
2019-03-29T14:15:59.024Z,22.20
2019-03-29T14:20:00.388Z,21.40
2019-03-29T14:24:01.379Z,21.30
2019-03-29T14:28:03.623Z,21.40
2019-03-29T14:32:04.642Z,23.00
2019-03-29T14:36:05.522Z,21.60
2019-03-29T14:40:08.163Z,21.00
2019-03-29T14:44:09.674Z,21.40
2019-03-29T14:48:10.581Z,21.80
2019-03-29T14:52:11.488Z,22.60
2019-03-29T14:56:12.464Z,22.10
2019-03-29T15:00:13.805Z,20.90
2019-03-29T15:04:15.426Z,19.80
2019-03-29T15:08:16.298Z,22.30
2019-03-29T15:12:17.491Z,23.80
2019-03-29T15:16:18.587Z,24.10
2019-03-29T15:20:19.478Z,22.50
2019-03-29T15:24:20.476Z,22.10
2019-03-29T15:28:21.471Z,22.00
2019-03-29T15:32:22.382Z,21.10
2019-03-29T15:36:23.411Z,20.30
2019-03-29T15:40:24.521Z,19.80
2019-03-29T15:44:25.536Z,19.60
2019-03-29T15:48:26.580Z,19.30
2019-03-29T15:52:27.504Z,20.10
2019-03-29T15:56:28.483Z,21.20
2019-03-29T16:00:29.510Z,21.60
2019-03-29T16:04:30.384Z,20.40
2019-03-29T16:08:31.487Z,19.60
2019-03-29T16:12:32.406Z,21.00
2019-03-29T16:16:33.320Z,21.60
2019-03-29T16:20:34.392Z,21.50
2019-03-29T16:24:35.278Z,21.90
2019-03-29T16:28:36.151Z,22.30
2019-03-29T16:32:37.655Z,22.20
2019-03-29T16:36:38.870Z,21.40
2019-03-29T16:40:40.217Z,20.90
2019-03-29T16:44:41.149Z,21.60
2019-03-29T16:48:42.052Z,21.10
2019-03-29T16:52:42.922Z,21.30
2019-03-29T16:56:43.799Z,19.70
2019-03-29T17:00:44.736Z,20.10
2019-03-29T17:04:45.873Z,20.70
2019-03-29T17:08:48.956Z,21.10
2019-03-29T17:12:52.281Z,19.60
2019-03-29T17:16:53.093Z,20.20
2019-03-29T17:20:54.339Z,20.60
2019-03-29T17:24:57.256Z,20.80
2019-03-29T17:28:58.300Z,20.70
2019-03-29T17:32:59.169Z,20.80
2019-03-29T17:37:00.381Z,21.00
2019-03-29T17:41:01.364Z,18.90
2019-03-29T17:45:04.868Z,18.60
2019-03-29T17:49:05.784Z,18.10
2019-03-29T17:53:06.648Z,18.10
2019-03-29T17:57:07.770Z,18.00
2019-03-29T18:01:08.927Z,18.40
2019-03-29T18:05:10.016Z,18.00
2019-03-29T18:09:11.119Z,18.20
2019-03-29T18:13:12.011Z,18.00
2019-03-29T18:17:12.987Z,17.60
2019-03-29T18:21:13.968Z,17.70
2019-03-29T18:25:15.314Z,17.60
2019-03-29T18:29:16.263Z,17.50
2019-03-29T18:33:18.499Z,17.10
2019-03-29T18:37:20.550Z,16.70
2019-03-29T18:41:21.455Z,16.90
2019-03-29T18:45:22.434Z,16.60
2019-03-29T18:49:23.404Z,16.40
2019-03-29T18:53:24.400Z,16.10
2019-03-29T18:57:25.363Z,15.90
2019-03-29T19:01:26.554Z,15.90
2019-03-29T19:05:28.032Z,15.60
2019-03-29T19:09:31.604Z,15.20
2019-03-29T19:13:31.703Z,14.80
2019-03-29T19:17:32.673Z,14.60
2019-03-29T19:21:33.771Z,14.30
2019-03-29T19:25:34.815Z,14.80
2019-03-29T19:29:35.700Z,14.60
2019-03-29T19:33:36.723Z,14.30
2019-03-29T19:37:37.564Z,14.70
2019-03-29T19:41:38.678Z,14.10
2019-03-29T19:45:39.767Z,14.30
2019-03-29T19:49:40.674Z,14.20
2019-03-29T19:53:41.796Z,13.80
2019-03-29T19:57:46.259Z,14.10
2019-03-29T20:01:45.915Z,14.10
2019-03-29T20:05:46.797Z,14.10
2019-03-29T20:09:47.858Z,13.80
2019-03-29T20:13:48.728Z,13.70
2019-03-29T20:17:49.971Z,13.60
2019-03-29T20:21:50.975Z,13.10
2019-03-29T20:25:51.879Z,13.20
2019-03-29T20:29:52.865Z,13.10
2019-03-29T20:33:53.771Z,13.20
2019-03-29T20:37:54.783Z,13.20
2019-03-29T20:41:55.801Z,13.10
2019-03-29T20:45:56.831Z,13.00
2019-03-29T20:49:57.808Z,12.60
2019-03-29T20:53:58.744Z,12.00
2019-03-29T20:57:59.654Z,12.40
2019-03-29T21:02:00.567Z,11.90
2019-03-29T21:06:01.448Z,12.20
2019-03-29T21:10:06.527Z,12.50
2019-03-29T21:14:07.530Z,12.40
2019-03-29T21:18:08.523Z,12.70
2019-03-29T21:22:09.436Z,11.80
2019-03-29T21:26:10.316Z,12.10
2019-03-29T21:30:13.448Z,12.30
2019-03-29T21:34:14.357Z,12.20
2019-03-29T21:38:15.349Z,12.10
2019-03-29T21:42:16.213Z,12.10
2019-03-29T21:46:17.213Z,12.10
2019-03-29T21:50:18.318Z,11.60
2019-03-29T21:54:19.211Z,11.60
2019-03-29T21:58:20.092Z,11.80
2019-03-29T22:02:21.569Z,11.60
2019-03-29T22:06:22.733Z,11.60
2019-03-29T22:10:24.014Z,11.60
2019-03-29T22:14:24.923Z,10.80
2019-03-29T22:18:37.318Z,11.00
2019-03-29T22:22:28.664Z,11.40
2019-03-29T22:26:29.655Z,11.40
2019-03-29T22:30:30.661Z,10.80
2019-03-29T22:34:31.552Z,11.00
2019-03-29T22:38:32.388Z,10.90
2019-03-29T22:42:33.295Z,10.90
2019-03-29T22:46:34.263Z,10.60
2019-03-29T22:50:35.266Z,10.20
2019-03-29T22:54:36.103Z,10.70
2019-03-29T22:58:37.025Z,10.40
2019-03-29T23:02:38.263Z,10.70
2019-03-29T23:06:39.166Z,10.30
2019-03-29T23:10:40.153Z,10.50
2019-03-29T23:14:41.062Z,10.70
2019-03-29T23:18:42.087Z,10.60
2019-03-29T23:22:43.009Z,10.60
2019-03-29T23:26:43.893Z,10.50
2019-03-29T23:30:44.847Z,10.40
2019-03-29T23:34:45.729Z,10.40
2019-03-29T23:38:46.607Z,10.40
2019-03-29T23:42:47.538Z,10.30
2019-03-29T23:46:48.573Z,10.30
2019-03-29T23:50:49.622Z,9.70
2019-03-29T23:54:50.583Z,9.00
2019-03-29T23:58:51.459Z,9.20
